METAR Data
IDs: Format: Raw Decoded Include TAF

Data at: 1854 UTC 16 Oct 2021

KLUD 161835Z AUTO 31004KT 10SM CLR 20/00 A3038 RMK AO2 T01990001
KLUD 161815Z AUTO 01007KT 10SM CLR 20/01 A3040 RMK AO2 T02020007
KLUD 161755Z AUTO 32005KT 10SM CLR 19/00 A3041 RMK AO2 T01940001 10198 20088
KLUD 161735Z AUTO 34005KT 10SM CLR 20/00 A3041 RMK AO2 T01980004
KLUD 161715Z AUTO 33006KT 10SM CLR 19/00 A3041 RMK AO2 T01910004
KLUD 161655Z AUTO 03005KT 10SM CLR 19/M01 A3042 RMK AO2 T01851009
KLUD 161635Z AUTO 03004KT 10SM CLR 18/04 A3042 RMK AO2 T01810042
KLUD 161615Z AUTO 27004KT 10SM CLR 17/05 A3042 RMK AO2 T01740054
KLUD 161555Z AUTO 29003KT 10SM CLR 17/06 A3041 RMK AO2 T01670063
KLUD 161535Z AUTO 26003KT 10SM CLR 16/08 A3041 RMK AO2 T01550078
KLUD 161515Z AUTO 00000KT 10SM CLR 14/07 A3041 RMK AO2 T01410071
KLUD 161455Z AUTO 29003KT 10SM CLR 13/07 A3041 RMK AO2 T01330068
KLUD 161435Z AUTO 00000KT 10SM CLR 12/07 A3040 RMK AO2 T01230066
KLUD 161415Z AUTO 24004KT 10SM CLR 12/07 A3039 RMK AO2 T01220068
KLUD 161355Z AUTO 30003KT 10SM CLR 11/05 A3039 RMK AO2 T01080053
KLUD 161335Z AUTO 30003KT 10SM CLR 10/05 A3038 RMK AO2 T00980049
KLUD 161315Z AUTO 29003KT 10SM CLR 10/04 A3037 RMK AO2 T00960042
KLUD 161255Z AUTO 29003KT 10SM CLR 09/04 A3036 RMK AO2 T00910042
KLUD 161235Z AUTO 29003KT 10SM CLR 10/04 A3035 RMK AO2 T00950042
KLUD 161215Z AUTO 00000KT 10SM CLR 09/05 A3035 RMK AO2 T00880045
KLUD 161155Z AUTO 27003KT 10SM CLR 10/04 A3035 RMK AO2 T00950042 10126 20095
KLUD 161135Z AUTO 29003KT 10SM CLR 10/04 A3034 RMK AO2 T00970041
KLUD 161115Z AUTO 30003KT 10SM CLR 10/04 A3033 RMK AO2 T00960042
KLUD 161055Z AUTO 30003KT 10SM CLR 10/04 A3033 RMK AO2 T01000042
KLUD 161035Z AUTO 00000KT 10SM CLR 10/05 A3033 RMK AO2 T00980045
KLUD 161015Z AUTO 00000KT 10SM CLR 10/05 A3033 RMK AO2 T01010045
KLUD 160955Z AUTO 00000KT 10SM CLR 10/05 A3033 RMK AO2 T01000045
KLUD 160935Z AUTO 00000KT 10SM CLR 10/05 A3033 RMK AO2 T01000047
KLUD 160915Z AUTO 30003KT 10SM CLR 10/05 A3032 RMK AO2 T01030046
KLUD 160855Z AUTO 30003KT 10SM CLR 11/04 A3032 RMK AO2 T01080043
KLUD 160835Z AUTO 33003KT 10SM CLR 11/04 A3032 RMK AO2 T01120043
KLUD 160815Z AUTO 35003KT 10SM CLR 12/04 A3033 RMK AO2 T01180041
KLUD 160755Z AUTO 35004KT 10SM CLR 12/04 A3032 RMK AO2 T01210040
KLUD 160735Z AUTO 34005KT 10SM CLR 12/04 A3032 RMK AO2 T01220041
KLUD 160715Z AUTO 35006KT 10SM CLR 12/04 A3032 RMK AO2 T01240040
KLUD 160655Z AUTO 33004KT 10SM CLR 12/04 A3032 RMK AO2 T01180042
KLUD 160635Z AUTO 32004KT 10SM CLR 12/04 A3031 RMK AO2 T01150043
KLUD 160615Z AUTO 33003KT 10SM CLR 12/04 A3031 RMK AO2 T01150042
KLUD 160555Z AUTO 34004KT 10SM CLR 13/04 A3030 RMK AO2 T01260036 10179 20123 402200123
KLUD 160535Z AUTO 34004KT 7SM CLR 13/04 A3030 RMK AO2 T01250038
KLUD 160515Z AUTO 33005KT 10SM CLR 13/04 A3029 RMK AO2 T01260037
KLUD 160455Z AUTO 34004KT 10SM CLR 13/04 A3028 RMK AO2 T01300036
KLUD 160435Z AUTO 34005KT 10SM CLR 13/04 A3028 RMK AO2 T01300035
KLUD 160415Z AUTO 35004KT 10SM CLR 13/04 A3027 RMK AO2 T01330035
KLUD 160355Z AUTO 35005KT 10SM CLR 14/04 A3026 RMK AO2 T01360035
KLUD 160335Z AUTO 35005KT 10SM CLR 14/03 A3026 RMK AO2 T01380034
KLUD 160315Z AUTO 34005KT 10SM CLR 14/04 A3025 RMK AO2 T01370037
KLUD 160255Z AUTO 34005KT 10SM CLR 14/04 A3024 RMK AO2 T01400036
KLUD 160235Z AUTO 34005KT 10SM CLR 14/04 A3024 RMK AO2 T01400039
KLUD 160215Z AUTO 33005KT 10SM CLR 15/04 A3023 RMK AO2 T01450039
KLUD 160155Z AUTO 33004KT 10SM CLR 15/04 A3022 RMK AO2 T01450040
KLUD 160135Z AUTO 33004KT 10SM CLR 14/05 A3021 RMK AO2 T01440046
KLUD 160115Z AUTO 34004KT 10SM CLR 16/04 A3021 RMK AO2 T01550040
KLUD 160055Z AUTO 34005KT 10SM CLR 16/04 A3020 RMK AO2 T01610042
KLUD 160035Z AUTO 34007KT 10SM CLR 17/05 A3019 RMK AO2 T01700045
KLUD 160015Z AUTO 34009G15KT 10SM CLR 17/05 A3018 RMK AO2 T01730052
KLUD 152355Z AUTO 34009KT 310V010 10SM CLR 18/06 A3017 RMK AO2 T01800060 10220 20180
KLUD 152335Z AUTO 34007KT 300V010 10SM CLR 19/06 A3016 RMK AO2 T01880060
KLUD 152315Z AUTO 34008G17KT 10SM CLR 20/06 A3015 RMK AO2 T01950056
KLUD 152255Z AUTO 33010G19KT 300V010 10SM CLR 20/06 A3015 RMK AO2 T02000057
KLUD 152235Z AUTO 35011G20KT 10SM CLR 21/06 A3014 RMK AO2 T02060062
KLUD 152215Z AUTO 34008G19KT 7SM CLR 21/06 A3013 RMK AO2 T02090063
KLUD 152155Z AUTO 34010G17KT 10SM CLR 21/07 A3013 RMK AO2 T02100065
KLUD 152135Z AUTO 35009G17KT 10SM CLR 21/07 A3012 RMK AO2 T02130072
KLUD 152115Z AUTO 33010G20KT 290V350 10SM CLR 22/08 A3011 RMK AO2 T02150075
KLUD 152055Z AUTO 34009G18KT 310V010 10SM CLR 22/08 A3011 RMK AO2 T02170083
KLUD 152035Z AUTO 34011G20KT 280V350 10SM CLR 22/09 A3010 RMK AO2 T02190089
KLUD 152015Z AUTO 35012G18KT 300V020 10SM CLR 22/09 A3009 RMK AO2 T02180093
KLUD 151955Z AUTO 34010G22KT 10SM CLR 22/09 A3009 RMK AO2 T02150094
KLUD 151935Z AUTO 34012G22KT 10SM CLR 22/09 A3009 RMK AO2 T02150094
KLUD 151915Z AUTO 33011G19KT 10SM CLR 21/10 A3008 RMK AO2 T02130101
KLUD 151855Z AUTO 32012G21KT 290V360 10SM CLR 21/10 A3009 RMK AO2 T02050102
KLUD 151835Z AUTO 32012G21KT 10SM CLR 20/11 A3009 RMK AO2 T02040106
KLUD 151815Z AUTO 32008G19KT 280V350 10SM SCT025 20/11 A3009 RMK AO2 T01960111
KLUD 151755Z AUTO 31011G19KT 280V360 10SM BKN023 19/12 A3008 RMK AO2 T01940117 10205 20152
KLUD 151735Z AUTO 31011G18KT 10SM BKN023 19/13 A3008 RMK AO2 T01930126
KLUD 151715Z AUTO 31008G20KT 10SM SCT014 SCT019 19/13 A3007 RMK AO2 T01870129
KLUD 151655Z AUTO 32008G16KT 300V010 10SM OVC014 18/14 A3006 RMK AO2 T01780137
KLUD 151635Z AUTO 30010G15KT 10SM BKN007 OVC012 16/14 A3006 RMK AO2 T01640135
KLUD 151615Z AUTO 31007G16KT 10SM OVC005 16/14 A3006 RMK AO2 T01550139
KLUD 151555Z AUTO 31007KT 270V010 7SM OVC005 16/14 A3004 RMK AO2 T01550140
KLUD 151535Z AUTO 30009G15KT 270V330 7SM OVC005 15/14 A3003 RMK AO2 T01520140
KLUD 151515Z AUTO 31008G18KT 290V350 5SM BR OVC003 16/15 A3002 RMK AO2 T01570146
KLUD 151455Z AUTO 32008G16KT 3SM BR OVC003 19/18 A2999 RMK AO2 T01880180
KLUD 151435Z AUTO 30006KT 230V310 1 1/2SM BR OVC001 19/18 A2998 RMK AO2 T01880180
KLUD 151415Z AUTO 29006KT A2996 RMK AO2 PWINO
KLUD 151355Z AUTO 29007KT 10SM BKN004 OVC008 19/18 A2994 RMK AO2 T01910179
KLUD 151335Z AUTO 28005KT 10SM BKN006 OVC014 20/19 A2992 RMK AO2 T01950185
KLUD 151315Z AUTO 28007KT 250V310 5SM BR BKN006 OVC017 20/19 A2991 RMK AO2 T02030194
KLUD 151255Z AUTO 26004KT 5SM BR BKN008 OVC015 20/19 A2990 RMK AO2 T02030193
KLUD 151235Z AUTO 25004KT 5SM BR SCT008 OVC017 21/20 A2989 RMK AO2 T02050195
KLUD 151215Z AUTO 23003KT 7SM OVC019 20/19 A2989 RMK AO2 T02030193
KLUD 151155Z AUTO 23003KT 7SM BKN011 OVC019 21/19 A2988 RMK AO2 T02050193 10220 20201
KLUD 151135Z AUTO 23003KT 7SM OVC011 21/19 A2987 RMK AO2 T02050194
KLUD 151115Z AUTO 22003KT 5SM BR BKN011 20/19 A2987 RMK AO2 T02020192
KLUD 151055Z AUTO 21004KT 7SM SCT011 20/19 A2986 RMK AO2 T02020191
KLUD 151035Z AUTO 21004KT 7SM CLR 21/19 A2985 RMK AO2 T02050191
KLUD 151015Z AUTO 18006KT 7SM CLR 21/19 A2985 RMK AO2 T02060193
KLUD 150955Z AUTO 17008KT 7SM CLR 21/19 A2984 RMK AO2 T02070193
KLUD 150935Z AUTO 17008KT 7SM CLR 21/19 A2984 RMK AO2 T02070193
KLUD 150915Z AUTO 17007KT 10SM CLR 21/19 A2983 RMK AO2 T02080194
KLUD 150855Z AUTO 17009KT 7SM CLR 21/20 A2984 RMK AO2 T02100195
KLUD 150835Z AUTO 17008KT 10SM CLR 21/20 A2983 RMK AO2 T02100195
KLUD 150815Z AUTO 17008KT 7SM CLR 21/20 A2984 RMK AO2 T02120196
KLUD 150755Z AUTO 17009KT 10SM CLR 21/20 A2984 RMK AO2 T02140197
KLUD 150735Z AUTO 17009G14KT 7SM CLR 22/20 A2984 RMK AO2 T02150200
KLUD 150715Z AUTO 17008KT 10SM CLR 22/20 A2983 RMK AO2 T02160200
KLUD 150655Z AUTO 17011G15KT 10SM CLR 22/20 A2983 RMK AO2 T02160201